Time;durP1;ratioP1;P1;durP2;ratioP2;P2;SDS_P1;SDS_P2;PMS_P1;PMS_P2;Temp;Humidity;BMP_temperature;BMP_pressure;BME280_temperature;BME280_humidity;BME280_pressure;Samples;Min_cycle;Max_cycle;Signal;HPM_P1;HPM_P2
2022/09/12 00:01:27;;;;;;;18.83;17.88;;;20.30;61.30;;;;;;5069954;28;20036;-82
2022/09/12 00:03:54;;;;;;;18.83;17.73;;;20.20;61.20;;;;;;5052560;28;20329;-82
2022/09/12 00:06:22;;;;;;;23.55;22.42;;;20.10;61.60;;;;;;5018602;28;20039;-82
2022/09/12 00:08:48;;;;;;;20.13;19.13;;;20.10;61.50;;;;;;5052554;28;20036;-81
2022/09/12 00:11:14;;;;;;;22.65;21.45;;;20.10;61.40;;;;;;5036120;28;20029;-81
2022/09/12 00:13:40;;;;;;;28.50;27.10;;;20.00;62.10;;;;;;5035838;28;20039;-81
2022/09/12 00:16:06;;;;;;;28.17;26.58;;;20.00;62.20;;;;;;5035536;28;20052;-81
2022/09/12 00:18:33;;;;;;;29.58;28.08;;;19.90;62.30;;;;;;5035354;28;20034;-81
2022/09/12 00:21:03;;;;;;;30.65;29.05;;;19.90;62.40;;;;;;5052144;28;20363;-81
2022/09/12 00:23:30;;;;;;;29.63;28.13;;;19.90;62.30;;;;;;5035918;28;20043;-81
2022/09/12 00:25:56;;;;;;;27.77;26.27;;;19.90;63.30;;;;;;5018952;28;20058;-82
2022/09/12 00:28:22;;;;;;;24.83;23.52;;;20.00;62.00;;;;;;5052089;28;20047;-82
2022/09/12 00:30:49;;;;;;;29.67;28.25;;;20.20;61.40;;;;;;5069823;28;20040;-81
2022/09/12 00:33:15;;;;;;;32.75;30.85;;;20.10;61.70;;;;;;5052503;28;20366;-82
2022/09/12 00:35:46;;;;;;;40.38;38.33;;;20.00;61.90;;;;;;5051961;28;20029;-82
2022/09/12 00:38:12;;;;;;;;;;;20.10;61.60;;;;;;5052627;28;20029;-81
2022/09/12 00:40:39;;;;;;;35.92;33.97;;;20.00;61.70;;;;;;5068767;28;19909;-82
2022/09/12 00:43:05;;;;;;;31.48;29.98;;;20.00;62.00;;;;;;5052243;28;20039;-81
2022/09/12 00:45:31;;;;;;;31.08;29.45;;;20.00;62.20;;;;;;5051681;28;20024;-81
2022/09/12 00:47:58;;;;;;;41.90;39.60;;;20.00;61.90;;;;;;5034481;28;20044;-80
2022/09/12 00:50:25;;;;;;;41.33;39.25;;;20.10;61.40;;;;;;5035811;28;20025;-81
2022/09/12 00:52:58;;;;;;;33.67;31.95;;;20.20;61.40;;;;;;5073098;28;20385;-81
2022/09/12 00:55:26;;;;;;;39.67;37.75;;;20.10;61.40;;;;;;5022728;28;20481;-81
2022/09/12 00:58:08;;;;;;;37.42;35.42;;;20.10;61.70;;;;;;5056023;28;20031;-81
2022/09/12 01:00:34;;;;;;;32.58;30.73;;;20.10;61.70;;;;;;5055543;28;20021;-81
2022/09/12 01:03:06;;;;;;;31.65;30.05;;;20.00;61.60;;;;;;5039008;28;20039;-81
2022/09/12 01:05:34;;;;;;;27.58;26.05;;;20.00;62.00;;;;;;5022754;28;20052;-81
2022/09/12 01:08:00;;;;;;;28.70;27.10;;;20.00;62.10;;;;;;5055726;28;20035;-81
2022/09/12 01:10:27;;;;;;;26.50;25.10;;;19.80;62.80;;;;;;5039192;28;20425;-81
2022/09/12 01:12:53;;;;;;;27.67;26.08;;;19.80;63.00;;;;;;5039074;28;20036;-81
2022/09/12 01:15:19;;;;;;;27.92;26.52;;;19.70;63.30;;;;;;5037684;28;20067;-81
2022/09/12 01:18:12;;;;;;;30.45;28.92;;;19.60;63.50;;;;;;5038740;28;20024;-81
2022/09/12 01:20:51;;;;;;;32.13;30.40;;;19.60;63.60;;;;;;5038465;28;20048;-81
2022/09/12 01:23:23;;;;;;;32.35;30.67;;;19.70;63.20;;;;;;5073191;28;20036;-81
2022/09/12 01:26:04;;;;;;;30.40;28.85;;;19.60;63.60;;;;;;5073393;28;20036;-81
2022/09/12 01:28:38;;;;;;;28.67;27.17;;;19.50;63.90;;;;;;5034540;28;20044;-81
2022/09/12 01:31:18;;;;;;;30.75;29.15;;;19.30;64.50;;;;;;5034358;28;20044;-81
2022/09/12 01:34:17;;;;;;;28.90;27.30;;;19.20;65.00;;;;;;5051755;28;20021;-81
2022/09/12 01:37:02;;;;;;;28.45;26.95;;;19.10;65.40;;;;;;4955679;28;20050;-81
2022/09/12 01:39:30;;;;;;;27.25;25.85;;;19.10;65.40;;;;;;4971646;28;20034;-81
2022/09/12 01:42:21;;;;;;;29.08;27.58;;;19.10;65.40;;;;;;4973855;28;20066;-81
2022/09/12 01:45:02;;;;;;;;;;;19.10;65.60;;;;;;4939676;28;20039;-81
2022/09/12 01:47:51;;;;;;;24.98;23.65;;;19.00;65.80;;;;;;4945893;29;20292;-81
2022/09/12 01:50:21;;;;;;;29.85;28.25;;;19.00;66.20;;;;;;4921868;29;20066;-81
2022/09/12 01:53:07;;;;;;;30.85;29.15;;;18.90;66.20;;;;;;4936507;29;20027;-81
2022/09/12 01:55:41;;;;;;;30.55;28.85;;;19.00;66.00;;;;;;4919869;29;20035;-81
2022/09/12 01:58:07;;;;;;;26.40;25.08;;;19.10;65.80;;;;;;4920628;29;20428;-81
2022/09/12 02:00:34;;;;;;;23.92;22.65;;;19.10;66.10;;;;;;4955690;28;20496;-81
2022/09/12 02:03:13;;;;;;;24.20;23.00;;;19.10;66.20;;;;;;4970805;28;20050;-81
2022/09/12 02:05:43;;;;;;;22.58;21.38;;;19.00;66.40;;;;;;4969904;28;20556;-81
2022/09/12 02:08:18;;;;;;;23.03;21.50;;;19.00;66.50;;;;;;4970873;28;20045;-81
2022/09/12 02:10:47;;;;;;;21.30;20.20;;;18.90;66.60;;;;;;4970553;28;20047;-81
2022/09/12 02:13:32;;;;;;;20.20;19.00;;;19.00;66.50;;;;;;4986882;28;20037;-81
2022/09/12 02:16:04;;;;;;;20.80;19.55;;;19.00;66.50;;;;;;4996620;28;20064;-81
2022/09/12 02:18:30;;;;;;;20.50;19.35;;;19.10;66.10;;;;;;4998069;28;20033;-81
2022/09/12 02:20:56;;;;;;;21.55;20.45;;;19.10;66.30;;;;;;5017649;28;20029;-81
2022/09/12 02:23:23;;;;;;;23.25;21.85;;;19.10;66.30;;;;;;5037536;28;20047;-81
2022/09/12 02:25:53;;;;;;;23.70;22.38;;;19.00;66.60;;;;;;5037676;28;20025;-81
2022/09/12 02:28:28;;;;;;;22.45;21.17;;;19.10;66.30;;;;;;5037578;28;20481;-81
2022/09/12 02:31:00;;;;;;;22.20;20.90;;;19.30;65.50;;;;;;5046312;28;20037;-81
2022/09/12 02:33:29;;;;;;;23.85;22.63;;;19.40;65.20;;;;;;5017511;28;20889;-81
2022/09/12 02:36:31;;;;;;;23.17;21.83;;;19.50;64.90;;;;;;5034299;28;20040;-81
2022/09/12 02:38:57;;;;;;;21.05;19.95;;;19.50;64.70;;;;;;4990058;28;20070;-81
2022/09/12 02:41:23;;;;;;;22.10;20.98;;;19.50;64.40;;;;;;4959996;28;20078;-81
2022/09/12 02:43:49;;;;;;;24.33;23.02;;;19.50;64.30;;;;;;4973737;28;20468;-81
2022/09/12 02:46:22;;;;;;;22.80;21.23;;;19.60;64.40;;;;;;4973213;28;20042;-81
2022/09/12 02:48:48;;;;;;;22.42;21.23;;;19.60;64.00;;;;;;4937941;28;20054;-81
2022/09/12 02:51:14;;;;;;;21.25;20.15;;;19.60;64.30;;;;;;4986795;28;20035;-81
2022/09/12 02:53:40;;;;;;;23.83;22.55;;;19.50;65.10;;;;;;4986540;28;20484;-81
2022/09/12 02:56:08;;;;;;;27.10;25.70;;;19.40;65.10;;;;;;4986402;28;20051;-81
2022/09/12 02:58:34;;;;;;;28.05;26.45;;;19.50;65.00;;;;;;4986448;28;20392;-81
2022/09/12 03:01:12;;;;;;;32.08;30.38;;;19.40;65.30;;;;;;4985920;28;20035;-81
2022/09/12 03:04:09;;;;;;;33.10;31.50;;;19.30;65.90;;;;;;4970331;28;20043;-81
2022/09/12 03:06:49;;;;;;;30.13;28.63;;;19.30;65.60;;;;;;4970520;28;20039;-81
2022/09/12 03:09:19;;;;;;;32.97;31.30;;;19.30;65.60;;;;;;4984963;28;20066;-81
2022/09/12 03:12:27;;;;;;;34.35;32.55;;;19.30;65.80;;;;;;4985869;28;20038;-81
2022/09/12 03:15:25;;;;;;;30.92;29.42;;;19.20;65.90;;;;;;4977380;28;20041;-81
2022/09/12 03:18:13;;;;;;;25.55;24.20;;;19.00;66.70;;;;;;5012763;28;20034;-81
2022/09/12 03:21:08;;;;;;;25.42;23.60;;;19.00;66.90;;;;;;5013746;28;20382;-81
2022/09/12 03:23:43;;;;;;;21.77;20.67;;;18.90;67.60;;;;;;5013333;28;20363;-81
2022/09/12 03:26:16;;;;;;;26.50;25.08;;;18.80;67.80;;;;;;5013255;28;20370;-81
2022/09/12 03:28:42;;;;;;;28.35;26.95;;;18.60;69.00;;;;;;5027672;28;20035;-81
2022/09/12 03:31:16;;;;;;;28.02;26.63;;;18.50;69.60;;;;;;5047323;28;20512;-81
2022/09/12 03:33:42;;;;;;;26.63;25.33;;;18.50;69.40;;;;;;5069504;28;20047;-81
2022/09/12 03:36:28;;;;;;;26.63;25.33;;;18.40;69.80;;;;;;5069719;28;20028;-80
2022/09/12 03:38:54;;;;;;;22.77;21.58;;;18.20;70.80;;;;;;5052641;28;20043;-81
2022/09/12 03:41:21;;;;;;;22.73;21.23;;;18.10;70.80;;;;;;5086086;28;20020;-81
2022/09/12 03:43:47;;;;;;;23.45;22.17;;;18.10;70.70;;;;;;5049259;28;20021;-81
2022/09/12 03:46:13;;;;;;;22.63;21.52;;;18.10;71.10;;;;;;5032492;28;20032;-80
2022/09/12 03:48:40;;;;;;;20.42;19.33;;;17.90;71.20;;;;;;5032660;28;20497;-81
2022/09/12 03:51:07;;;;;;;19.10;17.88;;;17.90;71.50;;;;;;5016536;28;20037;-81
2022/09/12 03:53:33;;;;;;;19.58;18.50;;;17.90;71.70;;;;;;5033026;28;20029;-81
2022/09/12 03:56:00;;;;;;;20.15;19.13;;;17.80;71.90;;;;;;5016350;28;20501;-81
2022/09/12 03:58:29;;;;;;;22.05;20.75;;;17.80;72.20;;;;;;5015371;28;20048;-81
2022/09/12 04:00:55;;;;;;;21.23;20.02;;;17.90;72.00;;;;;;4995574;28;20037;-81
2022/09/12 04:03:21;;;;;;;33.38;31.77;;;17.80;72.40;;;;;;5013122;28;20052;-80
2022/09/12 04:05:47;;;;;;;31.80;30.02;;;17.70;72.80;;;;;;5029418;28;20034;-81
2022/09/12 04:08:14;;;;;;;29.15;27.67;;;17.70;73.00;;;;;;5029348;28;20041;-80
2022/09/12 04:10:40;;;;;;;30.77;29.08;;;17.70;72.60;;;;;;5029485;28;20037;-81
2022/09/12 04:13:06;;;;;;;32.38;30.80;;;17.70;72.90;;;;;;5028785;28;20040;-81
2022/09/12 04:15:32;;;;;;;46.10;43.67;;;17.70;73.30;;;;;;5027967;28;20410;-81
2022/09/12 04:17:58;;;;;;;34.50;32.70;;;17.70;73.20;;;;;;5012978;28;20506;-81
2022/09/12 04:20:24;;;;;;;29.67;28.27;;;17.80;72.90;;;;;;5012833;28;20394;-81
2022/09/12 04:22:50;;;;;;;28.70;27.17;;;17.80;72.60;;;;;;5012773;28;20040;-81
2022/09/12 04:25:16;;;;;;;32.60;31.02;;;17.80;72.80;;;;;;5030621;28;20402;-81
2022/09/12 04:27:42;;;;;;;34.83;33.00;;;17.90;72.50;;;;;;5026646;28;20390;-81
2022/09/12 04:30:09;;;;;;;33.88;31.88;;;17.90;72.40;;;;;;5013807;28;20506;-81
2022/09/12 04:32:35;;;;;;;37.33;35.38;;;18.00;72.20;;;;;;5016728;28;20037;-81
2022/09/12 04:35:01;;;;;;;34.83;33.13;;;18.10;72.00;;;;;;5016710;28;20061;-81
2022/09/12 04:37:27;;;;;;;30.17;28.38;;;18.10;72.20;;;;;;5016411;28;20045;-81
2022/09/12 04:39:56;;;;;;;31.00;29.40;;;18.00;72.50;;;;;;5035996;28;20490;-81
2022/09/12 04:42:23;;;;;;;29.88;28.27;;;18.00;72.50;;;;;;5035595;28;20048;-81
2022/09/12 04:44:49;;;;;;;28.35;26.92;;;18.10;72.20;;;;;;5060902;28;20029;-81
2022/09/12 04:47:15;;;;;;;32.58;30.95;;;18.10;72.50;;;;;;5018535;28;20052;-81
2022/09/12 04:49:41;;;;;;;33.97;32.17;;;18.00;72.60;;;;;;5050395;28;20060;-81
2022/09/12 04:52:07;;;;;;;33.28;31.55;;;17.80;73.30;;;;;;5056002;28;20058;-81
2022/09/12 04:54:33;;;;;;;32.25;30.52;;;17.80;73.40;;;;;;5055839;28;20036;-81
2022/09/12 04:57:00;;;;;;;31.15;29.63;;;17.80;73.30;;;;;;5039554;28;20033;-81
2022/09/12 04:59:26;;;;;;;30.48;28.88;;;17.80;73.10;;;;;;5073744;28;20036;-81
2022/09/12 05:01:53;;;;;;;30.23;28.75;;;17.90;72.80;;;;;;5039030;28;20028;-81
2022/09/12 05:04:19;;;;;;;27.52;25.90;;;17.80;73.10;;;;;;5038676;28;20043;-81
2022/09/12 05:06:46;;;;;;;26.55;25.13;;;17.60;73.70;;;;;;5055728;28;20466;-81
2022/09/12 05:09:13;;;;;;;26.40;24.83;;;17.60;73.60;;;;;;5055662;28;20033;-81
2022/09/12 05:11:40;;;;;;;26.13;24.63;;;17.70;73.50;;;;;;5039083;28;20047;-81
2022/09/12 05:14:10;;;;;;;25.63;24.33;;;17.80;73.30;;;;;;5055373;28;20488;-81
2022/09/12 05:16:36;;;;;;;26.13;24.83;;;17.70;73.20;;;;;;5054199;28;20033;-81
2022/09/12 05:19:02;;;;;;;25.45;24.05;;;17.80;73.10;;;;;;5054593;28;20040;-81
2022/09/12 05:21:28;;;;;;;26.40;24.73;;;17.90;72.50;;;;;;5055377;28;20029;-81
2022/09/12 05:23:55;;;;;;;27.08;25.48;;;18.10;72.20;;;;;;5055302;28;20473;-81
2022/09/12 05:26:21;;;;;;;26.50;25.20;;;17.90;72.40;;;;;;5055365;28;20039;-81
2022/09/12 05:28:48;;;;;;;26.75;25.20;;;17.80;73.00;;;;;;5022150;28;20049;-81
2022/09/12 05:31:22;;;;;;;26.73;25.02;;;17.80;73.20;;;;;;5034599;28;20048;-81
2022/09/12 05:33:49;;;;;;;26.48;25.05;;;17.90;72.80;;;;;;5035358;28;20036;-81
2022/09/12 05:36:20;;;;;;;25.92;24.63;;;18.00;72.30;;;;;;5035312;28;20028;-81
2022/09/12 05:38:46;;;;;;;26.00;24.60;;;17.80;73.20;;;;;;5034181;28;20366;-81
2022/09/12 05:41:23;;;;;;;25.85;24.60;;;17.80;73.50;;;;;;5035073;28;20033;-81
2022/09/12 05:43:53;;;;;;;27.52;25.73;;;17.70;74.20;;;;;;5035079;28;20013;-81
2022/09/12 05:46:21;;;;;;;27.33;25.67;;;17.50;74.70;;;;;;5034795;28;20037;-81
2022/09/12 05:48:47;;;;;;;26.88;25.38;;;17.50;74.90;;;;;;5034841;28;20040;-81
2022/09/12 05:51:19;;;;;;;24.90;23.50;;;17.40;75.20;;;;;;5017917;28;20060;-81
2022/09/12 05:53:46;;;;;;;25.00;23.40;;;17.30;76.00;;;;;;5019412;28;20029;-81
2022/09/12 05:56:14;;;;;;;25.52;24.23;;;17.20;76.30;;;;;;5018682;28;20043;-81
2022/09/12 05:58:45;;;;;;;24.52;23.17;;;17.40;75.70;;;;;;5018594;28;20454;-81
2022/09/12 06:01:15;;;;;;;25.17;23.77;;;17.40;76.10;;;;;;5034417;28;20072;-81
2022/09/12 06:03:46;;;;;;;23.27;22.10;;;17.20;76.70;;;;;;5035380;28;20021;-81
2022/09/12 06:06:13;;;;;;;24.10;22.70;;;17.10;76.80;;;;;;5002456;28;20387;-81
2022/09/12 06:08:43;;;;;;;23.55;22.17;;;17.20;76.80;;;;;;5001804;28;20029;-81
2022/09/12 06:11:13;;;;;;;22.88;21.27;;;17.20;76.90;;;;;;5018413;28;20052;-81
2022/09/12 06:13:40;;;;;;;26.52;25.00;;;17.30;76.30;;;;;;5017979;28;20040;-81
2022/09/12 06:16:12;;;;;;;24.95;23.55;;;17.60;75.80;;;;;;5001715;28;20148;-81
2022/09/12 06:18:39;;;;;;;26.20;24.77;;;17.50;75.60;;;;;;5018675;28;20017;-81
2022/09/12 06:21:06;;;;;;;26.63;25.17;;;17.50;75.80;;;;;;5034576;28;20033;-81
2022/09/12 06:23:32;;;;;;;27.50;26.05;;;17.50;76.10;;;;;;5001783;28;20512;-81
2022/09/12 06:25:59;;;;;;;29.10;27.67;;;17.70;76.10;;;;;;5034677;28;20033;-81
2022/09/12 06:28:25;;;;;;;28.20;26.75;;;17.70;76.10;;;;;;5017990;28;20099;-82
2022/09/12 06:30:51;;;;;;;29.63;28.17;;;17.70;75.80;;;;;;5014899;28;20051;-81
2022/09/12 06:33:17;;;;;;;28.08;26.52;;;17.80;75.90;;;;;;5017261;28;20033;-81
2022/09/12 06:35:43;;;;;;;30.55;28.80;;;17.80;75.50;;;;;;5034229;28;20025;-81
2022/09/12 06:38:10;;;;;;;30.38;28.65;;;18.10;75.10;;;;;;5033927;28;20048;-81
2022/09/12 06:40:45;;;;;;;27.98;26.60;;;18.20;74.50;;;;;;5034216;28;20033;-82
2022/09/12 06:43:12;;;;;;;32.20;30.48;;;18.30;74.00;;;;;;5034644;28;20021;-82
2022/09/12 06:45:39;;;;;;;31.15;29.52;;;18.40;73.90;;;;;;5033399;28;20032;-82
2022/09/12 06:48:05;;;;;;;30.80;28.98;;;18.60;73.30;;;;;;5018660;28;20025;-82
2022/09/12 06:50:31;;;;;;;25.95;24.58;;;18.80;72.70;;;;;;5037061;28;20040;-82
2022/09/12 06:52:57;;;;;;;25.15;23.63;;;18.90;72.10;;;;;;5053822;28;20027;-82
2022/09/12 06:55:23;;;;;;;21.88;20.67;;;19.10;71.50;;;;;;5037219;28;20405;-81
2022/09/12 06:57:51;;;;;;;26.35;25.05;;;19.10;71.40;;;;;;5037182;28;20040;-82
2022/09/12 07:00:17;;;;;;;26.13;24.73;;;19.10;71.30;;;;;;5053281;28;20025;-82
2022/09/12 07:02:43;;;;;;;25.42;24.13;;;19.20;70.80;;;;;;5036975;28;20020;-82
2022/09/12 07:05:10;;;;;;;28.95;27.30;;;19.20;70.60;;;;;;5036895;28;20492;-82
2022/09/12 07:07:36;;;;;;;29.20;27.60;;;19.30;71.00;;;;;;5037177;28;20385;-82
2022/09/12 07:10:03;;;;;;;26.70;25.40;;;19.40;70.40;;;;;;5053015;28;20059;-82
2022/09/12 07:12:29;;;;;;;30.85;29.20;;;19.30;70.60;;;;;;5036879;28;20043;-82
2022/09/12 07:14:55;;;;;;;30.75;29.15;;;19.40;70.80;;;;;;5053508;28;20020;-82
2022/09/12 07:17:24;;;;;;;30.27;28.58;;;19.50;70.20;;;;;;5036322;28;20048;-82
2022/09/12 07:19:50;;;;;;;33.20;31.50;;;19.70;69.60;;;;;;5053061;28;20477;-82
2022/09/12 07:22:16;;;;;;;33.05;31.40;;;19.80;69.50;;;;;;5036740;28;20040;-82
2022/09/12 07:24:44;;;;;;;35.28;33.58;;;20.00;68.90;;;;;;5071193;28;20488;-82
2022/09/12 07:27:10;;;;;;;31.35;29.65;;;20.10;68.20;;;;;;5070896;28;20393;-82
2022/09/12 07:29:37;;;;;;;32.17;30.58;;;20.00;68.50;;;;;;5053053;28;20472;-83
2022/09/12 07:32:04;;;;;;;36.33;34.33;;;20.00;68.80;;;;;;5070228;28;20033;-82
2022/09/12 07:34:31;;;;;;;37.72;35.72;;;20.20;68.40;;;;;;5053176;28;20021;-84
2022/09/12 07:36:57;;;;;;;34.28;32.47;;;20.40;67.70;;;;;;5053211;28;20390;-83
2022/09/12 07:39:23;;;;;;;33.90;32.15;;;20.40;67.40;;;;;;5035471;28;20091;-82
2022/09/12 07:41:49;;;;;;;33.35;31.63;;;20.40;67.50;;;;;;5070784;28;20033;-83
2022/09/12 07:44:16;;;;;;;35.53;33.80;;;20.40;67.40;;;;;;5070828;28;20052;-83
2022/09/12 07:46:42;;;;;;;33.50;31.80;;;20.60;66.90;;;;;;5052353;28;20047;-83
2022/09/12 07:49:10;;;;;;;34.65;32.80;;;20.50;67.00;;;;;;5052670;28;20060;-83
2022/09/12 07:51:36;;;;;;;38.63;36.63;;;20.70;67.00;;;;;;5052789;28;20043;-82
2022/09/12 07:54:06;;;;;;;35.58;33.85;;;20.70;66.20;;;;;;5070970;28;20029;-82
2022/09/12 07:56:32;;;;;;;35.13;33.30;;;20.80;66.20;;;;;;5053114;28;20036;-83
2022/09/12 07:58:59;;;;;;;34.95;33.13;;;21.10;65.60;;;;;;5070887;28;20470;-82
2022/09/12 08:01:25;;;;;;;38.72;36.72;;;21.10;64.80;;;;;;5069733;28;20045;-83
2022/09/12 08:03:58;;;;;;;33.88;32.17;;;21.10;65.00;;;;;;5052316;28;20029;-83
2022/09/12 08:06:24;;;;;;;35.17;33.45;;;21.30;64.40;;;;;;5052891;28;20028;-83
2022/09/12 08:08:51;;;;;;;37.85;35.95;;;21.30;64.10;;;;;;5052839;28;20021;-84
2022/09/12 08:11:18;;;;;;;36.25;34.45;;;21.50;64.10;;;;;;5036247;28;20041;-83
2022/09/12 08:13:46;;;;;;;37.53;35.63;;;21.60;63.50;;;;;;5070466;28;20035;-83
2022/09/12 08:16:20;;;;;;;31.42;29.52;;;21.70;63.10;;;;;;5035682;28;20033;-83
2022/09/12 08:18:46;;;;;;;31.10;29.40;;;21.80;63.30;;;;;;5052321;28;20020;-83
2022/09/12 08:21:14;;;;;;;33.63;31.73;;;21.80;62.20;;;;;;5019518;28;20389;-83
2022/09/12 08:23:41;;;;;;;38.08;35.90;;;21.80;62.90;;;;;;5035820;28;20033;-83
2022/09/12 08:26:07;;;;;;;33.65;32.03;;;22.00;62.50;;;;;;5019138;28;20490;-83
2022/09/12 08:28:34;;;;;;;35.03;33.33;;;22.10;61.80;;;;;;5052455;28;20032;-83
2022/09/12 08:31:01;;;;;;;32.45;30.75;;;22.30;61.60;;;;;;5051698;28;20039;-83
2022/09/12 08:33:31;;;;;;;29.63;28.05;;;22.30;60.90;;;;;;5069955;28;20036;-83
2022/09/12 08:36:14;;;;;;;30.58;28.98;;;22.40;61.10;;;;;;5052118;28;20045;-83
2022/09/12 08:38:45;;;;;;;32.90;31.20;;;22.50;60.20;;;;;;5053940;28;20029;-83
2022/09/12 08:41:17;;;;;;;32.45;30.83;;;22.70;60.20;;;;;;5031591;28;20037;-83
2022/09/12 08:44:02;;;;;;;31.80;29.90;;;22.80;60.00;;;;;;5053155;28;20036;-83
2022/09/12 08:46:32;;;;;;;29.10;27.63;;;22.90;59.60;;;;;;5051031;28;20393;-83
2022/09/12 08:48:58;;;;;;;31.98;30.23;;;23.00;59.70;;;;;;5052336;28;20048;-84
2022/09/12 08:51:25;;;;;;;31.73;30.13;;;23.30;59.30;;;;;;5035720;28;20404;-83
2022/09/12 08:53:51;;;;;;;30.52;28.83;;;23.30;58.70;;;;;;5018690;28;20037;-83
2022/09/12 08:56:17;;;;;;;23.63;22.23;;;23.40;58.50;;;;;;5069854;28;20493;-84
2022/09/12 08:58:43;;;;;;;23.88;22.33;;;23.40;58.30;;;;;;5052170;28;20075;-84
2022/09/12 09:01:30;;;;;;;27.50;25.75;;;23.60;58.30;;;;;;5051482;28;20044;-84
2022/09/12 09:04:00;;;;;;;27.80;26.30;;;23.80;57.90;;;;;;5053575;28;20031;-84
2022/09/12 09:07:05;;;;;;;24.83;23.53;;;23.90;57.60;;;;;;5070211;28;20028;-84
2022/09/12 09:09:47;;;;;;;24.70;23.20;;;24.10;57.10;;;;;;5055717;28;20045;-84
2022/09/12 09:12:39;;;;;;;27.00;25.30;;;24.10;57.10;;;;;;5070281;28;20040;-84
2022/09/12 09:15:20;;;;;;;25.02;23.80;;;24.20;56.80;;;;;;5037818;28;20795;-83
2022/09/12 09:17:59;;;;;;;24.73;23.40;;;24.40;56.80;;;;;;5041138;28;20061;-84
2022/09/12 09:20:35;;;;;;;25.00;23.50;;;24.50;56.00;;;;;;5039779;28;20039;-84
2022/09/12 09:23:27;;;;;;;25.08;23.67;;;24.60;55.90;;;;;;5073402;28;20037;-84
2022/09/12 09:25:57;;;;;;;25.88;24.55;;;24.70;56.30;;;;;;5036481;28;20037;-84
2022/09/12 09:28:43;;;;;;;23.90;22.60;;;24.90;55.80;;;;;;5055400;28;20033;-84
2022/09/12 09:31:36;;;;;;;25.10;23.77;;;25.00;54.80;;;;;;5053578;28;20045;-83
2022/09/12 09:34:25;;;;;;;26.05;24.40;;;25.00;54.70;;;;;;5052040;28;20044;-83
2022/09/12 09:37:16;;;;;;;24.77;23.48;;;25.20;55.00;;;;;;5058448;28;20036;-84
2022/09/12 09:39:47;;;;;;;;;;;25.40;54.30;;;;;;5073585;28;20048;-84
2022/09/12 09:42:52;;;;;;;27.20;25.90;;;25.70;53.80;;;;;;5073360;28;19904;-84
2022/09/12 09:45:20;;;;;;;24.70;23.40;;;25.80;53.80;;;;;;5054191;28;20381;-84
2022/09/12 09:48:09;;;;;;;24.08;22.85;;;25.80;53.20;;;;;;5038483;28;20047;-84
2022/09/12 09:50:38;;;;;;;22.08;20.77;;;26.10;52.70;;;;;;5034601;28;20115;-84
2022/09/12 09:53:04;;;;;;;22.73;21.08;;;25.90;52.40;;;;;;5035506;28;20044;-83
2022/09/12 09:55:37;;;;;;;33.75;32.05;;;25.90;52.90;;;;;;5034953;28;20511;-84
2022/09/12 09:58:03;;;;;;;34.08;32.33;;;25.90;52.40;;;;;;5018690;28;20390;-83
2022/09/12 10:00:33;;;;;;;37.38;35.40;;;25.90;52.20;;;;;;5034119;28;20026;-84
2022/09/12 10:03:09;;;;;;;33.38;31.67;;;25.90;52.20;;;;;;5034977;28;20036;-83
2022/09/12 10:05:49;;;;;;;31.75;29.95;;;25.90;52.40;;;;;;5034123;28;20040;-84
2022/09/12 10:08:34;;;;;;;28.98;27.05;;;25.90;52.80;;;;;;5017670;28;20367;-84
2022/09/12 10:11:06;;;;;;;28.02;26.58;;;26.10;53.00;;;;;;5018672;28;20052;-83
2022/09/12 10:13:38;;;;;;;24.60;23.27;;;26.20;52.40;;;;;;5034574;28;20032;-84
2022/09/12 10:16:17;;;;;;;25.83;24.42;;;26.30;51.60;;;;;;5001368;28;20041;-84
2022/09/12 10:18:43;;;;;;;24.38;23.17;;;26.30;51.50;;;;;;5018959;28;20033;-83
2022/09/12 10:21:44;;;;;;;26.70;25.40;;;26.40;51.20;;;;;;5034446;28;20530;-85
2022/09/12 10:24:20;;;;;;;;;;;26.50;51.10;;;;;;5017499;28;20383;-84
2022/09/12 10:26:54;;;;;;;24.95;23.73;;;26.60;50.30;;;;;;5034519;28;20361;-83
2022/09/12 10:29:26;;;;;;;26.83;25.30;;;26.70;50.40;;;;;;4997502;28;20505;-84
2022/09/12 10:31:54;;;;;;;28.63;27.15;;;26.90;51.00;;;;;;4997016;28;20048;-84
2022/09/12 10:34:33;;;;;;;26.80;25.38;;;27.00;50.30;;;;;;4997449;28;20037;-84
2022/09/12 10:37:08;;;;;;;24.90;23.50;;;27.30;49.40;;;;;;5014402;28;20033;-84
2022/09/12 10:39:35;;;;;;;27.52;26.02;;;27.40;49.10;;;;;;5014388;28;20025;-84
2022/09/12 10:42:01;;;;;;;27.05;25.75;;;27.50;49.70;;;;;;5033658;28;20470;-84
2022/09/12 10:44:32;;;;;;;24.67;23.48;;;27.70;48.20;;;;;;5042777;28;20787;-84
2022/09/12 10:46:59;;;;;;;27.13;25.63;;;27.70;48.00;;;;;;5048846;28;20028;-84
2022/09/12 10:49:27;;;;;;;28.27;26.83;;;27.70;48.00;;;;;;5063795;28;20041;-84
2022/09/12 10:51:53;;;;;;;26.85;25.45;;;27.70;48.10;;;;;;5054272;28;20048;-84
2022/09/12 10:54:24;;;;;;;30.20;28.70;;;27.80;48.00;;;;;;5054114;28;20036;-84
2022/09/12 10:57:22;;;;;;;24.42;23.23;;;27.90;47.30;;;;;;5020826;28;20040;-84
2022/09/12 11:00:16;;;;;;;29.88;28.27;;;27.90;47.90;;;;;;5036499;28;20044;-84
2022/09/12 11:02:57;;;;;;;26.33;24.98;;;28.00;47.80;;;;;;5070699;28;20397;-84
2022/09/12 11:05:44;;;;;;;25.55;24.02;;;28.10;46.80;;;;;;5036602;28;20035;-83
2022/09/12 11:08:29;;;;;;;27.27;25.73;;;28.10;47.20;;;;;;5071561;28;20031;-84
2022/09/12 11:10:59;;;;;;;26.90;25.50;;;28.10;47.30;;;;;;5054998;28;20523;-84
2022/09/12 11:13:34;;;;;;;28.45;27.02;;;28.20;47.30;;;;;;5053495;28;20029;-84
2022/09/12 11:16:37;;;;;;;25.67;24.38;;;28.20;46.50;;;;;;5070971;28;20099;-84
2022/09/12 11:19:21;;;;;;;27.23;25.67;;;28.20;46.70;;;;;;5023068;28;20037;-84
2022/09/12 11:22:06;;;;;;;27.42;26.08;;;28.20;46.70;;;;;;5071137;28;20462;-84
2022/09/12 11:24:56;;;;;;;31.40;29.80;;;28.30;46.80;;;;;;5052371;28;20032;-84
2022/09/12 11:27:26;;;;;;;30.05;28.35;;;28.40;46.40;;;;;;5066750;28;20043;-83
2022/09/12 11:29:53;;;;;;;26.45;25.15;;;28.50;45.80;;;;;;5051198;28;20474;-84
2022/09/12 11:32:25;;;;;;;40.75;38.70;;;28.50;45.90;;;;;;5050549;28;20559;-84
2022/09/12 11:34:54;;;;;;;31.67;30.10;;;28.50;45.70;;;;;;5051172;28;20466;-84
2022/09/12 11:37:38;;;;;;;33.58;31.92;;;28.60;46.30;;;;;;5050425;28;20462;-85
2022/09/12 11:40:32;;;;;;;33.72;32.03;;;28.70;45.50;;;;;;5036437;28;20028;-84
2022/09/12 11:43:08;;;;;;;36.58;34.80;;;28.70;45.40;;;;;;5071150;28;20020;-84
2022/09/12 11:45:42;;;;;;;36.05;34.08;;;28.90;45.20;;;;;;5053703;28;20025;-84
2022/09/12 11:48:38;;;;;;;31.52;30.02;;;28.90;44.60;;;;;;5052820;28;20032;-84
2022/09/12 11:51:05;;;;;;;34.40;32.58;;;28.90;44.30;;;;;;4989188;28;20077;-84
2022/09/12 11:53:35;;;;;;;32.58;30.92;;;29.00;44.80;;;;;;4973266;28;20045;-86
2022/09/12 11:56:08;;;;;;;29.02;27.50;;;29.00;44.10;;;;;;4973018;28;20046;-83
2022/09/12 11:58:35;;;;;;;30.27;28.77;;;29.10;44.10;;;;;;4973620;28;20053;-83
2022/09/12 12:01:20;;;;;;;29.80;28.20;;;29.10;43.40;;;;;;4972496;28;20100;-84
2022/09/12 12:03:46;;;;;;;29.10;27.40;;;29.10;43.90;;;;;;4974691;28;20027;-84
2022/09/12 12:06:24;;;;;;;30.58;28.80;;;29.20;43.40;;;;;;4973210;28;20038;-84
2022/09/12 12:08:50;;;;;;;32.25;30.58;;;29.20;43.10;;;;;;4973455;28;20053;-84
2022/09/12 12:11:25;;;;;;;31.48;29.80;;;29.40;42.40;;;;;;4972518;28;20107;-84
2022/09/12 12:13:55;;;;;;;35.35;33.53;;;29.40;42.40;;;;;;4988799;28;20061;-84
2022/09/12 12:16:27;;;;;;;35.03;33.17;;;29.50;42.20;;;;;;4972826;28;20517;-84
2022/09/12 12:18:57;;;;;;;32.58;30.85;;;29.40;42.30;;;;;;4957556;28;20038;-84
2022/09/12 12:21:35;;;;;;;30.90;29.40;;;29.50;42.40;;;;;;4973597;28;20038;-83
2022/09/12 12:24:07;;;;;;;31.17;29.58;;;29.60;42.10;;;;;;4988585;28;20042;-83
2022/09/12 12:26:42;;;;;;;34.38;32.60;;;29.70;42.00;;;;;;4989388;28;20038;-84
2022/09/12 12:29:11;;;;;;;33.28;31.67;;;29.80;41.70;;;;;;5051972;28;20037;-84
2022/09/12 12:32:02;;;;;;;29.58;28.17;;;29.90;41.70;;;;;;5062766;28;20040;-84
2022/09/12 12:34:35;;;;;;;33.33;31.52;;;29.90;41.70;;;;;;5070598;28;20043;-84
2022/09/12 12:37:28;;;;;;;27.45;26.15;;;29.90;41.60;;;;;;5052759;28;20031;-84
2022/09/12 12:40:03;;;;;;;28.77;27.17;;;29.90;42.00;;;;;;5070118;28;20028;-84
2022/09/12 12:42:35;;;;;;;29.17;27.50;;;30.00;41.60;;;;;;5069437;28;20442;-84
2022/09/12 12:45:07;;;;;;;30.20;28.60;;;30.10;41.20;;;;;;5070374;28;20032;-84
2022/09/12 12:47:36;;;;;;;31.52;29.90;;;30.10;41.40;;;;;;5063246;28;20032;-83
2022/09/12 12:50:09;;;;;;;32.80;31.10;;;30.10;41.40;;;;;;5074010;28;20523;-82
2022/09/12 12:52:54;;;;;;;30.63;29.10;;;30.20;41.10;;;;;;5055565;28;20511;-84